Time;durP1;ratioP1;P1;durP2;ratioP2;P2;SDS_P1;SDS_P2;PMS_P1;PMS_P2;Temp;Humidity;BMP_temperature;BMP_pressure;BME280_temperature;BME280_humidity;BME280_pressure;Samples;Min_cycle;Max_cycle;Signal;HPM_P1;HPM_P2
2022/12/13 00:01:29;;;;;;;41.50;23.08;;;-1.60;99.90;;;;;;5094869;28;20507;-85
2022/12/13 00:03:57;;;;;;;43.58;23.58;;;-1.60;99.90;;;;;;5078550;28;20040;-85
2022/12/13 00:06:23;;;;;;;37.30;21.98;;;-1.50;99.90;;;;;;5094747;28;20052;-84
2022/12/13 00:08:49;;;;;;;38.58;22.85;;;-1.50;99.90;;;;;;5078568;28;20057;-84
2022/12/13 00:11:15;;;;;;;38.57;23.17;;;-1.60;99.90;;;;;;5094518;28;20040;-85
2022/12/13 00:13:41;;;;;;;39.17;23.63;;;-1.50;99.90;;;;;;5094768;28;20074;-84
2022/12/13 00:16:11;;;;;;;36.42;23.15;;;-1.60;99.90;;;;;;5094461;28;20048;-85
2022/12/13 00:18:36;;;;;;;37.13;22.17;;;-1.50;99.90;;;;;;5095035;28;20101;-84
2022/12/13 00:21:07;;;;;;;36.33;22.73;;;-1.50;99.90;;;;;;5094417;28;20395;-85
2022/12/13 00:23:33;;;;;;;35.40;21.52;;;-1.50;99.90;;;;;;5094777;28;20048;-84
2022/12/13 00:26:04;;;;;;;33.90;21.30;;;-1.50;99.90;;;;;;5095504;28;20048;-84
2022/12/13 00:28:30;;;;;;;37.65;21.55;;;-1.60;99.90;;;;;;5094321;28;20484;-84
2022/12/13 00:30:57;;;;;;;37.80;22.13;;;-1.70;99.90;;;;;;5095670;28;20056;-84
2022/12/13 00:33:23;;;;;;;35.55;21.30;;;-1.70;99.90;;;;;;5094269;28;20515;-84
2022/12/13 00:35:49;;;;;;;36.10;20.93;;;-1.70;99.90;;;;;;5094797;28;20047;-84
2022/12/13 00:38:15;;;;;;;42.10;21.93;;;-1.70;99.90;;;;;;5094171;28;20088;-84
2022/12/13 00:40:40;;;;;;;34.83;20.13;;;-1.70;99.90;;;;;;5077668;28;20555;-84
2022/12/13 00:43:06;;;;;;;37.03;21.10;;;-1.60;99.90;;;;;;5093182;28;20052;-85
2022/12/13 00:45:32;;;;;;;43.13;22.57;;;-1.70;99.90;;;;;;5095498;28;20048;-84
2022/12/13 00:47:59;;;;;;;33.60;20.33;;;-1.70;99.90;;;;;;5094245;28;20193;-84
2022/12/13 00:50:25;;;;;;;35.38;21.70;;;-1.60;99.90;;;;;;5077245;28;20067;-84
2022/12/13 00:52:50;;;;;;;35.17;21.48;;;-1.70;99.90;;;;;;5094325;28;20380;-84
2022/12/13 00:55:16;;;;;;;32.93;20.87;;;-1.80;99.90;;;;;;5093942;28;20105;-84
2022/12/13 00:57:42;;;;;;;35.53;20.50;;;-1.70;99.90;;;;;;5095201;28;20044;-84
2022/12/13 01:00:09;;;;;;;33.33;20.87;;;-1.80;99.90;;;;;;5077183;28;20106;-85
2022/12/13 01:02:34;;;;;;;31.92;20.05;;;-1.80;99.90;;;;;;5077053;28;20048;-84
2022/12/13 01:05:00;;;;;;;38.73;20.93;;;-1.80;99.90;;;;;;5094085;28;20047;-84
2022/12/13 01:07:26;;;;;;;33.60;20.10;;;-1.80;99.90;;;;;;5093770;28;20277;-84
2022/12/13 01:09:52;;;;;;;35.80;21.07;;;-1.80;99.90;;;;;;5094460;28;20048;-84
2022/12/13 01:12:18;;;;;;;34.15;20.08;;;-1.70;99.90;;;;;;5093719;28;20044;-84
2022/12/13 01:14:43;;;;;;;39.08;21.55;;;-1.80;99.90;;;;;;5094192;28;20502;-84
2022/12/13 01:17:09;;;;;;;36.20;20.73;;;-1.80;99.90;;;;;;5098186;28;20131;-85
2022/12/13 01:19:35;;;;;;;32.97;19.33;;;-1.80;99.90;;;;;;5093971;28;20048;-85
2022/12/13 01:22:03;;;;;;;32.80;19.63;;;-1.80;99.90;;;;;;5094759;28;20482;-84
2022/12/13 01:24:30;;;;;;;33.88;20.15;;;-1.80;99.90;;;;;;5093177;28;20083;-85
2022/12/13 01:26:57;;;;;;;34.22;20.17;;;-1.80;99.90;;;;;;5094618;28;20113;-85
2022/12/13 01:29:24;;;;;;;34.28;20.45;;;-1.90;99.90;;;;;;5093342;28;20088;-85
2022/12/13 01:31:50;;;;;;;32.88;19.85;;;-1.90;99.90;;;;;;5093510;28;20048;-84
2022/12/13 01:34:18;;;;;;;32.30;20.03;;;-1.90;99.90;;;;;;5093408;28;20044;-84
2022/12/13 01:36:45;;;;;;;34.15;20.42;;;-1.80;99.90;;;;;;5094404;28;20048;-84
2022/12/13 01:39:13;;;;;;;36.88;20.75;;;-1.90;99.90;;;;;;5093197;28;20388;-86
2022/12/13 01:41:40;;;;;;;35.78;20.80;;;-1.80;99.90;;;;;;5093398;28;20396;-85
2022/12/13 01:44:26;;;;;;;37.92;21.75;;;-1.90;99.90;;;;;;5076769;28;20194;-84
2022/12/13 01:46:52;;;;;;;32.80;20.05;;;-1.90;99.90;;;;;;5076054;28;20040;-84
2022/12/13 01:49:18;;;;;;;34.08;19.73;;;-1.90;99.90;;;;;;5092972;28;20063;-85
2022/12/13 01:51:53;;;;;;;34.08;19.38;;;-1.90;99.90;;;;;;5093040;28;20048;-85
2022/12/13 01:54:23;;;;;;;36.65;20.52;;;-1.90;99.90;;;;;;5092677;28;20044;-84
2022/12/13 01:56:53;;;;;;;34.88;20.33;;;-1.90;99.90;;;;;;5093155;28;20052;-84
2022/12/13 01:59:20;;;;;;;32.15;19.08;;;-1.90;99.90;;;;;;5092451;28;20051;-85
2022/12/13 02:01:48;;;;;;;37.75;20.90;;;-2.00;99.90;;;;;;5092981;28;20392;-84
2022/12/13 02:04:36;;;;;;;31.05;18.48;;;-2.00;99.90;;;;;;5093623;28;20067;-88
2022/12/13 02:07:02;;;;;;;33.20;18.95;;;-1.90;99.90;;;;;;5092685;28;20044;-84
2022/12/13 02:09:28;;;;;;;34.58;19.35;;;-1.90;99.90;;;;;;5093258;28;20492;-85
2022/12/13 02:11:54;;;;;;;34.40;19.33;;;-2.00;99.90;;;;;;5075951;28;20063;-85
2022/12/13 02:14:20;;;;;;;34.95;19.08;;;-1.90;99.90;;;;;;5075671;28;20059;-85
2022/12/13 02:17:21;;;;;;;33.97;19.40;;;-2.00;99.90;;;;;;5092645;28;20048;-84
2022/12/13 02:20:10;;;;;;;33.47;18.80;;;-2.00;99.90;;;;;;5083318;28;20484;-86
2022/12/13 02:22:47;;;;;;;34.15;19.20;;;-2.00;99.90;;;;;;5092006;28;20101;-86
2022/12/13 02:25:31;;;;;;;35.10;20.40;;;-1.90;99.90;;;;;;5092492;28;20105;-86
2022/12/13 02:28:05;;;;;;;32.85;18.92;;;-2.00;99.90;;;;;;5092655;28;20054;-86
2022/12/13 02:30:44;;;;;;;31.65;18.92;;;-1.90;99.90;;;;;;5092327;28;20110;-85
2022/12/13 02:33:39;;;;;;;30.70;19.23;;;-2.00;99.90;;;;;;5092526;28;20557;-85
2022/12/13 02:36:27;;;;;;;32.58;18.33;;;-2.00;99.90;;;;;;5070887;28;20055;-86
2022/12/13 02:38:56;;;;;;;33.63;19.17;;;-2.00;99.90;;;;;;5092168;28;20040;-85
2022/12/13 02:41:35;;;;;;;35.95;20.70;;;-1.90;99.90;;;;;;5092117;28;20047;-86
2022/12/13 02:44:09;;;;;;;28.48;17.67;;;-1.90;99.90;;;;;;5093389;28;20040;-85
2022/12/13 02:46:40;;;;;;;34.13;18.02;;;-1.90;99.90;;;;;;5093160;28;20044;-86
2022/12/13 02:49:08;;;;;;;34.78;18.83;;;-1.80;99.90;;;;;;5093498;28;20056;-86
2022/12/13 02:51:37;;;;;;;34.05;18.17;;;-1.90;99.90;;;;;;5075236;28;20055;-86
2022/12/13 02:54:03;;;;;;;30.13;18.40;;;-1.90;99.90;;;;;;5092264;28;20052;-85
2022/12/13 02:56:31;;;;;;;28.63;17.48;;;-1.90;99.90;;;;;;5058466;28;20044;-85
2022/12/13 02:58:59;;;;;;;29.58;17.75;;;-1.90;99.90;;;;;;5092172;28;20054;-84
2022/12/13 03:01:48;;;;;;;27.88;17.40;;;-1.90;99.90;;;;;;5091687;28;20063;-84
2022/12/13 03:06:28;;;;;;;31.30;18.05;;;-1.90;99.90;;;;;;5092335;28;20091;-85
2022/12/13 03:07:31;;;;;;;30.25;18.42;;;-1.90;99.90;;;;;;5096138;28;20400;-87
2022/12/13 03:10:04;;;;;;;33.10;18.20;;;-1.90;99.90;;;;;;5096491;28;20059;-85
2022/12/13 03:15:37;;;;;;;30.48;18.95;;;-1.90;99.90;;;;;;5097214;28;20139;-85
2022/12/13 03:18:14;;;;;;;30.23;17.50;;;-2.00;99.90;;;;;;5095702;28;20568;-85
2022/12/13 03:20:46;;;;;;;30.52;17.60;;;-2.00;99.90;;;;;;5078939;28;20048;-86
2022/12/13 03:23:13;;;;;;;30.30;17.83;;;-1.90;99.90;;;;;;5096227;28;20058;-86
2022/12/13 03:25:39;;;;;;;27.42;16.83;;;-1.90;99.90;;;;;;5095541;28;20054;-86
2022/12/13 03:28:05;;;;;;;28.53;17.60;;;-2.00;99.90;;;;;;5095757;28;20048;-86
2022/12/13 03:30:31;;;;;;;30.07;18.03;;;-2.00;99.90;;;;;;5095609;28;20079;-86
2022/12/13 03:32:57;;;;;;;28.45;16.98;;;-2.00;99.90;;;;;;5095695;28;20051;-86
2022/12/13 03:35:23;;;;;;;31.80;17.57;;;-2.00;99.90;;;;;;5062134;28;20048;-87
2022/12/13 03:37:49;;;;;;;32.17;19.25;;;-2.00;99.90;;;;;;5078480;28;20054;-86
2022/12/13 03:40:17;;;;;;;33.08;18.55;;;-2.00;99.90;;;;;;5096897;28;20055;-86
2022/12/13 03:42:43;;;;;;;29.48;18.65;;;-2.10;99.90;;;;;;5096527;28;20040;-86
2022/12/13 03:45:08;;;;;;;35.47;18.13;;;-2.10;99.90;;;;;;5095542;28;20139;-87
2022/12/13 03:47:34;;;;;;;29.27;16.95;;;-2.10;99.90;;;;;;5078401;28;20113;-87
2022/12/13 03:50:00;;;;;;;28.03;17.33;;;-2.00;99.90;;;;;;5078854;28;20048;-87
2022/12/13 03:52:26;;;;;;;30.23;17.27;;;-2.10;99.90;;;;;;5045423;28;20051;-87
2022/12/13 03:54:51;;;;;;;30.23;18.50;;;-2.10;99.90;;;;;;5078341;28;20484;-87
2022/12/13 03:57:17;;;;;;;29.70;18.30;;;-2.00;99.90;;;;;;5078037;28;20055;-87
2022/12/13 03:59:43;;;;;;;29.43;17.20;;;-2.00;99.90;;;;;;5095188;28;20480;-87
2022/12/13 04:02:08;;;;;;;26.03;16.83;;;-2.10;99.90;;;;;;5095259;28;20051;-87
2022/12/13 04:04:34;;;;;;;25.27;15.60;;;-2.10;99.90;;;;;;5078267;28;20039;-87
2022/12/13 04:07:00;;;;;;;28.23;16.90;;;-2.10;99.90;;;;;;5078352;28;20044;-87
2022/12/13 04:09:25;;;;;;;30.20;17.87;;;-2.10;99.90;;;;;;5078328;28;20048;-87
2022/12/13 04:14:38;;;;;;;28.20;16.17;;;-2.20;99.90;;;;;;5094278;28;20086;-87
2022/12/13 04:17:04;;;;;;;28.97;17.13;;;-2.10;99.90;;;;;;5078336;28;20140;-87
2022/12/13 04:19:30;;;;;;;29.40;17.03;;;-2.20;99.90;;;;;;5061776;28;20047;-87
2022/12/13 04:21:55;;;;;;;30.27;17.33;;;-2.10;99.90;;;;;;5061074;28;20364;-87
2022/12/13 04:24:22;;;;;;;28.87;18.07;;;-2.20;99.90;;;;;;5078163;28;20488;-87
2022/12/13 04:26:48;;;;;;;28.90;16.70;;;-2.20;99.90;;;;;;5061103;28;20138;-87
2022/12/13 04:29:13;;;;;;;29.10;16.50;;;-2.20;99.90;;;;;;5078202;28;20546;-88
2022/12/13 04:31:39;;;;;;;29.23;16.63;;;-2.20;99.90;;;;;;5077234;28;20062;-87
2022/12/13 04:34:05;;;;;;;29.20;16.03;;;-2.20;99.90;;;;;;5095662;28;20048;-87
2022/12/13 04:36:30;;;;;;;27.90;17.07;;;-2.10;99.90;;;;;;5094278;28;20088;-86
2022/12/13 04:38:56;;;;;;;27.83;16.87;;;-2.20;99.90;;;;;;5094145;28;20043;-87
2022/12/13 04:41:22;;;;;;;26.73;17.20;;;-2.30;99.90;;;;;;5077636;28;20093;-87
2022/12/13 04:43:52;;;;;;;32.53;18.37;;;-2.30;99.90;;;;;;5060450;28;20497;-87
2022/12/13 04:46:19;;;;;;;30.00;17.42;;;-2.30;99.90;;;;;;5094668;28;20130;-86
2022/12/13 04:48:45;;;;;;;31.13;17.35;;;-2.20;99.90;;;;;;5094029;28;20040;-87
2022/12/13 04:51:11;;;;;;;27.58;16.65;;;-2.40;99.90;;;;;;5094199;28;20488;-87
2022/12/13 04:53:37;;;;;;;29.97;17.40;;;-2.40;99.90;;;;;;5093887;28;20059;-88
2022/12/13 04:56:04;;;;;;;29.10;17.23;;;-2.40;99.90;;;;;;5060865;28;20052;-86
2022/12/13 04:58:30;;;;;;;26.70;17.02;;;-2.40;99.90;;;;;;5060817;28;20076;-87
2022/12/13 05:00:56;;;;;;;28.85;16.80;;;-2.40;99.90;;;;;;5060319;28;20047;-87
2022/12/13 05:03:22;;;;;;;27.43;15.87;;;-2.30;99.90;;;;;;5077319;28;20055;-88
2022/12/13 05:05:48;;;;;;;28.17;17.00;;;-2.40;99.90;;;;;;5060450;28;20043;-88
2022/12/13 05:08:14;;;;;;;26.53;17.07;;;-2.40;99.90;;;;;;5094361;28;20050;-88
2022/12/13 05:10:40;;;;;;;32.03;16.13;;;-2.40;99.90;;;;;;5076946;28;20083;-88
2022/12/13 05:13:06;;;;;;;28.70;17.70;;;-2.40;99.90;;;;;;5076389;28;20078;-88
2022/12/13 05:15:32;;;;;;;29.50;17.60;;;-2.30;99.90;;;;;;5095027;28;20133;-87
2022/12/13 05:18:02;;;;;;;29.05;16.38;;;-2.30;99.90;;;;;;5093767;28;20921;-87
2022/12/13 05:20:27;;;;;;;26.02;16.48;;;-2.30;99.90;;;;;;5093825;28;20050;-87
2022/12/13 05:22:57;;;;;;;27.80;16.20;;;-2.30;99.90;;;;;;5093176;28;20466;-87
2022/12/13 05:25:26;;;;;;;28.38;16.52;;;-2.30;99.90;;;;;;5093840;28;20094;-88
2022/12/13 05:27:52;;;;;;;26.80;16.05;;;-2.40;99.90;;;;;;5076021;28;20480;-88
2022/12/13 05:30:19;;;;;;;26.70;16.42;;;-2.30;99.90;;;;;;5093506;28;20051;-88
2022/12/13 05:32:44;;;;;;;26.58;16.38;;;-2.40;99.90;;;;;;5076346;28;20090;-88
2022/12/13 05:35:15;;;;;;;24.90;15.13;;;-2.40;99.90;;;;;;5076587;28;20080;-87
2022/12/13 05:37:41;;;;;;;24.85;16.27;;;-2.40;99.90;;;;;;5076433;28;20048;-88
2022/12/13 05:40:08;;;;;;;24.35;15.57;;;-2.40;99.90;;;;;;5093408;28;20048;-88
2022/12/13 05:42:37;;;;;;;27.48;17.17;;;-2.40;99.90;;;;;;5075845;28;20046;-87
2022/12/13 05:45:04;;;;;;;28.58;16.63;;;-2.40;99.90;;;;;;5093162;28;20052;-87
2022/12/13 05:47:30;;;;;;;28.77;16.35;;;-2.40;99.90;;;;;;5060061;28;20123;-88
2022/12/13 05:49:58;;;;;;;27.30;15.33;;;-2.40;99.90;;;;;;5092967;28;20131;-88
2022/12/13 05:52:29;;;;;;;29.60;15.98;;;-2.40;99.90;;;;;;5060130;28;20049;-88
2022/12/13 05:54:58;;;;;;;30.40;16.30;;;-2.50;99.90;;;;;;5075995;28;20059;-88
2022/12/13 05:57:24;;;;;;;25.75;15.57;;;-2.40;99.90;;;;;;5093162;28;20063;-87
2022/12/13 05:59:53;;;;;;;27.43;16.00;;;-2.40;99.90;;;;;;5092745;28;20048;-88
2022/12/13 06:02:19;;;;;;;32.08;17.15;;;-2.40;99.90;;;;;;5095996;28;20055;-89
2022/12/13 06:04:45;;;;;;;28.33;16.67;;;-2.40;99.90;;;;;;5093254;28;20056;-88
2022/12/13 06:07:11;;;;;;;26.83;17.10;;;-2.50;99.90;;;;;;5076827;28;20052;-88
2022/12/13 06:09:37;;;;;;;28.48;16.45;;;-2.50;99.90;;;;;;5093078;28;20040;-89
2022/12/13 06:12:03;;;;;;;29.33;16.40;;;-2.50;99.90;;;;;;5092465;28;20503;-90
2022/12/13 06:14:29;;;;;;;26.60;16.02;;;-2.50;99.90;;;;;;5093091;28;20056;-89
2022/12/13 06:16:55;;;;;;;25.33;16.07;;;-2.50;99.90;;;;;;5092399;28;20059;-89
2022/12/13 06:19:22;;;;;;;29.38;16.63;;;-2.50;99.90;;;;;;5076101;28;20055;-90
2022/12/13 06:21:52;;;;;;;28.80;16.95;;;-2.40;99.90;;;;;;5092547;28;20044;-89
2022/12/13 06:24:19;;;;;;;26.00;16.23;;;-2.60;99.90;;;;;;5093097;28;20051;-91
2022/12/13 06:26:45;;;;;;;27.00;16.35;;;-2.50;99.90;;;;;;5093148;28;20055;-91
2022/12/13 06:29:12;;;;;;;25.98;15.90;;;-2.50;99.90;;;;;;5076389;28;20052;-91
2022/12/13 06:31:38;;;;;;;32.35;16.20;;;-2.50;99.90;;;;;;5093097;28;20553;-91
2022/12/13 06:34:04;;;;;;;27.37;16.90;;;-2.60;99.90;;;;;;5092378;28;20052;-90
2022/12/13 06:36:30;;;;;;;27.80;16.58;;;-2.40;99.90;;;;;;5076204;28;20139;-91
2022/12/13 06:38:56;;;;;;;24.03;15.73;;;-2.50;99.90;;;;;;5092310;28;20460;-91
2022/12/13 06:41:21;;;;;;;24.97;16.13;;;-2.50;99.90;;;;;;5092279;28;20047;-91
2022/12/13 06:43:47;;;;;;;26.33;16.00;;;-2.50;99.90;;;;;;5092144;28;20369;-91
2022/12/13 06:46:16;;;;;;;26.50;17.07;;;-2.50;99.90;;;;;;5092841;28;20043;-91
2022/12/13 06:48:42;;;;;;;28.20;16.58;;;-2.50;99.90;;;;;;5092858;28;20044;-91
2022/12/13 06:51:11;;;;;;;27.00;16.97;;;-2.50;99.90;;;;;;5093472;28;20054;-91
2022/12/13 06:53:39;;;;;;;25.85;16.17;;;-2.30;99.90;;;;;;5075872;28;20051;-91
2022/12/13 06:56:10;;;;;;;28.20;16.40;;;-2.40;99.90;;;;;;5092981;28;20075;-90
2022/12/13 06:58:36;;;;;;;29.45;16.50;;;-2.50;99.90;;;;;;5076033;28;20495;-90
2022/12/13 07:01:13;;;;;;;28.88;17.08;;;-2.40;99.90;;;;;;5092322;28;20131;-90
2022/12/13 07:03:39;;;;;;;28.88;17.10;;;-2.50;99.90;;;;;;5092441;28;20373;-91
2022/12/13 07:06:17;;;;;;;29.25;16.80;;;-2.50;99.90;;;;;;5092221;28;20073;-90
2022/12/13 07:08:49;;;;;;;30.63;16.92;;;-1.90;99.90;;;;;;5075775;28;20048;-91
2022/12/13 07:11:19;;;;;;;27.73;16.80;;;-2.60;99.90;;;;;;5092062;28;20093;-90
2022/12/13 07:13:45;;;;;;;29.45;17.92;;;-2.30;99.90;;;;;;5091880;28;20091;-90
2022/12/13 07:16:11;;;;;;;30.80;17.77;;;-2.30;99.90;;;;;;5092245;28;20086;-90
2022/12/13 07:18:37;;;;;;;28.35;16.98;;;-2.40;99.90;;;;;;5092334;28;20051;-90
2022/12/13 07:21:09;;;;;;;29.15;16.95;;;-2.50;99.90;;;;;;5092067;28;20080;-90
2022/12/13 07:23:38;;;;;;;29.90;17.42;;;-2.50;99.90;;;;;;5092267;28;20044;-90
2022/12/13 07:26:05;;;;;;;30.63;17.42;;;-2.40;99.90;;;;;;5108947;28;20048;-90
2022/12/13 07:28:35;;;;;;;29.13;16.95;;;-2.50;99.90;;;;;;5109248;28;20044;-89
2022/12/13 07:31:06;;;;;;;26.40;16.45;;;-2.50;99.90;;;;;;5075228;28;20048;-89
2022/12/13 07:33:32;;;;;;;28.08;17.08;;;-2.50;99.90;;;;;;5092172;28;20055;-89
2022/12/13 07:36:10;;;;;;;32.75;18.27;;;-2.40;99.90;;;;;;5091691;28;20055;-87
2022/12/13 07:38:36;;;;;;;29.83;17.95;;;-2.50;99.90;;;;;;5091966;28;20056;-88
2022/12/13 07:41:02;;;;;;;27.17;16.55;;;-2.10;99.90;;;;;;5074853;28;20097;-88
2022/12/13 07:43:28;;;;;;;28.80;18.08;;;-2.50;99.90;;;;;;5091646;28;20044;-87
2022/12/13 07:45:58;;;;;;;29.10;17.63;;;-2.10;99.90;;;;;;5091919;28;20055;-88
2022/12/13 07:48:25;;;;;;;32.45;17.98;;;-0.80;99.90;;;;;;5091883;28;20458;-87
2022/12/13 07:50:52;;;;;;;27.10;15.88;;;-2.30;99.90;;;;;;5092373;28;20098;-87
2022/12/13 07:53:18;;;;;;;29.50;18.58;;;-2.40;99.90;;;;;;5078696;28;20066;-86
2022/12/13 07:55:43;;;;;;;31.85;18.27;;;-1.80;99.90;;;;;;5112345;28;20093;-86
2022/12/13 07:58:12;;;;;;;27.83;18.13;;;-2.40;99.90;;;;;;5094996;28;20044;-86
2022/12/13 08:00:39;;;;;;;29.05;17.73;;;-2.40;99.90;;;;;;5095447;28;20056;-87
2022/12/13 08:03:05;;;;;;;31.10;20.02;;;-2.40;99.90;;;;;;5078227;28;20063;-88
2022/12/13 08:05:32;;;;;;;46.75;27.65;;;-2.40;99.90;;;;;;5095248;28;20043;-88
2022/12/13 08:07:59;;;;;;;44.15;26.90;;;-2.30;99.90;;;;;;5094630;28;20086;-82
2022/12/13 08:10:26;;;;;;;45.35;25.27;;;-2.30;99.90;;;;;;5078277;28;20047;-83
2022/12/13 08:12:51;;;;;;;37.85;24.33;;;-2.40;99.90;;;;;;5077859;28;20056;-82
2022/12/13 08:15:17;;;;;;;40.07;23.73;;;-2.30;99.90;;;;;;5095786;28;20509;-82
2022/12/13 08:17:43;;;;;;;38.80;21.70;;;-2.20;99.90;;;;;;5095864;28;20052;-80
2022/12/13 08:20:09;;;;;;;34.43;20.73;;;-2.30;99.90;;;;;;5095659;28;20075;-81
2022/12/13 08:22:35;;;;;;;32.88;21.45;;;-2.30;99.90;;;;;;5094554;28;20487;-81
2022/12/13 08:25:01;;;;;;;37.17;22.27;;;-2.20;99.90;;;;;;5094565;28;20055;-80
2022/12/13 08:27:27;;;;;;;36.65;21.27;;;-2.20;99.90;;;;;;5095792;28;20454;-81
2022/12/13 08:29:53;;;;;;;33.35;20.88;;;-2.20;99.90;;;;;;5095859;28;20048;-81
2022/12/13 08:32:18;;;;;;;38.13;21.03;;;-2.10;99.90;;;;;;5095374;28;20042;-81
2022/12/13 08:34:44;;;;;;;32.03;21.50;;;-2.10;99.90;;;;;;5094609;28;20106;-82
2022/12/13 08:37:11;;;;;;;33.47;20.57;;;-2.00;99.90;;;;;;5094521;28;20059;-81
2022/12/13 08:39:38;;;;;;;44.42;23.77;;;-2.00;99.90;;;;;;5095528;28;20051;-81
2022/12/13 08:42:16;;;;;;;32.15;21.00;;;-1.90;99.90;;;;;;5093873;28;20079;-82
2022/12/13 08:44:41;;;;;;;34.78;21.92;;;-1.90;99.90;;;;;;5094821;28;20051;-81
2022/12/13 08:47:15;;;;;;;38.53;23.15;;;-1.90;99.90;;;;;;5094286;28;20525;-81
2022/12/13 08:49:41;;;;;;;35.80;20.98;;;-1.90;99.90;;;;;;5094413;28;20515;-82
2022/12/13 08:52:06;;;;;;;36.77;22.93;;;-1.90;99.90;;;;;;5077347;28;20084;-82
2022/12/13 08:54:32;;;;;;;35.50;21.73;;;-1.90;99.90;;;;;;5077278;28;20044;-82
2022/12/13 08:56:58;;;;;;;31.10;19.58;;;-1.10;99.90;;;;;;5095221;28;20044;-81
2022/12/13 08:59:24;;;;;;;32.67;21.23;;;-1.80;99.90;;;;;;5094941;28;20196;-82
2022/12/13 09:01:50;;;;;;;36.67;21.15;;;-1.80;99.90;;;;;;5094821;28;20091;-81
2022/12/13 09:04:16;;;;;;;37.65;22.52;;;-1.70;99.90;;;;;;5094062;28;20080;-82
2022/12/13 09:06:42;;;;;;;38.13;23.47;;;-1.70;99.90;;;;;;5093828;28;20083;-81
2022/12/13 09:09:08;;;;;;;38.53;23.57;;;-1.60;99.90;;;;;;5093625;28;20286;-81
2022/12/13 09:11:34;;;;;;;39.87;25.37;;;-1.60;99.90;;;;;;5095039;28;20044;-80
2022/12/13 09:14:00;;;;;;;52.27;30.13;;;-1.50;99.90;;;;;;5093642;28;20048;-81
2022/12/13 09:16:25;;;;;;;39.33;23.20;;;-1.40;99.90;;;;;;5093374;28;20056;-82
2022/12/13 09:18:52;;;;;;;48.93;28.60;;;-1.40;99.90;;;;;;5095128;28;20036;-79
2022/12/13 09:21:19;;;;;;;40.20;25.42;;;-1.30;99.90;;;;;;5076484;28;20101;-81
2022/12/13 09:23:45;;;;;;;93.20;58.15;;;-1.30;99.90;;;;;;5093794;28;20136;-80
2022/12/13 09:26:13;;;;;;;76.90;53.00;;;-1.30;99.90;;;;;;5076767;28;20052;-80
2022/12/13 09:28:39;;;;;;;57.50;38.90;;;-1.20;99.90;;;;;;5093619;28;20541;-80
2022/12/13 09:31:10;;;;;;;48.53;32.55;;;-1.20;99.90;;;;;;5093208;28;20044;-81
2022/12/13 09:33:36;;;;;;;53.53;35.20;;;-1.20;99.90;;;;;;5094189;28;20043;-83
2022/12/13 09:36:06;;;;;;;63.10;40.17;;;-1.10;99.90;;;;;;5094537;28;20130;-79
2022/12/13 09:38:33;;;;;;;37.78;23.35;;;-1.20;99.90;;;;;;5094226;28;20075;-80
2022/12/13 09:41:03;;;;;;;36.97;24.10;;;-1.10;99.90;;;;;;5094291;28;20181;-80
2022/12/13 09:43:32;;;;;;;37.45;24.73;;;-1.10;99.90;;;;;;5093227;28;20108;-82
2022/12/13 09:46:03;;;;;;;40.53;25.92;;;-1.10;99.90;;;;;;5092844;28;20396;-82
2022/12/13 09:48:29;;;;;;;36.80;25.05;;;-1.00;99.90;;;;;;5092737;28;20044;-82
2022/12/13 09:50:54;;;;;;;38.25;23.08;;;-1.00;99.90;;;;;;5093918;28;20081;-82
2022/12/13 09:53:20;;;;;;;38.87;22.20;;;-1.00;99.90;;;;;;5093919;28;20141;-83
2022/12/13 09:55:51;;;;;;;33.00;22.17;;;-0.90;99.90;;;;;;5094504;28;20127;-82
2022/12/13 09:58:24;;;;;;;36.38;22.48;;;-0.90;99.90;;;;;;5093774;28;20040;-81
2022/12/13 10:00:52;;;;;;;41.15;23.88;;;-0.90;99.90;;;;;;5094249;28;20044;-82
2022/12/13 10:03:19;;;;;;;35.33;21.42;;;-0.90;99.90;;;;;;5058603;28;20139;-82
2022/12/13 10:06:00;;;;;;;38.55;22.38;;;-0.90;99.90;;;;;;5094106;28;20048;-79
2022/12/13 10:08:36;;;;;;;39.10;21.88;;;-0.90;99.90;;;;;;5092805;28;20040;-78
2022/12/13 10:11:02;;;;;;;35.85;23.00;;;-0.80;99.90;;;;;;5094007;28;20058;-75
2022/12/13 10:13:44;;;;;;;43.20;27.83;;;-0.70;99.90;;;;;;5074890;28;20059;-77
2022/12/13 10:16:35;;;;;;;44.97;27.65;;;-0.90;99.90;;;;;;5093598;28;20048;-77
2022/12/13 10:19:12;;;;;;;39.95;25.70;;;-0.90;99.90;;;;;;5101980;28;20379;-75
2022/12/13 10:21:41;;;;;;;36.60;23.33;;;-0.90;99.90;;;;;;5100858;28;20040;-78
2022/12/13 10:24:26;;;;;;;35.15;22.40;;;-0.40;99.90;;;;;;5101323;28;20048;-77
2022/12/13 10:26:53;;;;;;;29.27;19.70;;;-0.10;99.90;;;;;;5099220;28;20124;-77
2022/12/13 10:29:19;;;;;;;46.08;25.25;;;-0.90;99.90;;;;;;5092947;28;20043;-76
2022/12/13 10:31:48;;;;;;;45.10;29.42;;;-0.90;99.90;;;;;;5092421;28;20042;-76
2022/12/13 10:34:27;;;;;;;40.53;24.67;;;0.10;99.90;;;;;;5092695;28;20391;-78
2022/12/13 10:36:53;;;;;;;36.72;23.55;;;-0.90;99.90;;;;;;5091837;28;20043;-78
2022/12/13 10:39:39;;;;;;;50.22;27.60;;;-0.80;99.90;;;;;;5092803;28;20162;-74
2022/12/13 10:42:14;;;;;;;48.55;28.75;;;-0.80;99.90;;;;;;5092144;28;20044;-73
2022/12/13 10:44:40;;;;;;;46.10;26.20;;;-0.80;99.90;;;;;;5092821;28;20136;-73
2022/12/13 10:47:09;;;;;;;41.28;25.45;;;-0.80;99.90;;;;;;5092986;28;20523;-74
2022/12/13 10:49:56;;;;;;;42.70;24.42;;;-0.80;99.90;;;;;;5092994;28;20055;-74
2022/12/13 10:52:36;;;;;;;41.60;22.52;;;-0.70;99.90;;;;;;5092952;28;20055;-74
2022/12/13 10:55:21;;;;;;;41.70;26.40;;;0.30;99.90;;;;;;5093171;28;20103;-74
2022/12/13 10:57:57;;;;;;;42.60;26.30;;;-0.70;99.90;;;;;;5092590;28;20060;-74
2022/12/13 11:00:30;;;;;;;40.03;23.60;;;-0.70;99.90;;;;;;5092650;28;20141;-75
2022/12/13 11:02:56;;;;;;;36.83;24.27;;;-0.70;99.90;;;;;;5101016;28;20050;-75
2022/12/13 11:05:28;;;;;;;38.90;22.60;;;-0.60;99.90;;;;;;5102326;28;20107;-75
2022/12/13 11:07:54;;;;;;;38.10;24.02;;;-0.60;99.90;;;;;;5112306;28;20047;-78
2022/12/13 11:10:22;;;;;;;42.42;23.90;;;-0.60;99.90;;;;;;5113089;28;20484;-81
2022/12/13 11:12:49;;;;;;;36.38;23.77;;;-0.60;99.90;;;;;;5113250;28;20099;-75
2022/12/13 11:15:22;;;;;;;39.10;24.27;;;-0.30;99.90;;;;;;5113199;28;20546;-74
2022/12/13 11:17:52;;;;;;;36.70;24.10;;;-0.30;99.90;;;;;;5113325;28;20547;-79
2022/12/13 11:20:29;;;;;;;37.47;23.42;;;-0.20;99.90;;;;;;5112532;28;20043;-78
2022/12/13 11:23:27;;;;;;;38.03;23.98;;;-0.40;99.90;;;;;;5113562;28;20047;-77
2022/12/13 11:26:00;;;;;;;37.30;23.35;;;-0.50;99.90;;;;;;5113052;28;20092;-78
2022/12/13 11:28:38;;;;;;;36.13;23.55;;;-0.50;99.90;;;;;;5117085;28;20083;-77
2022/12/13 11:31:27;;;;;;;37.20;23.60;;;-0.50;99.90;;;;;;5117420;28;20104;-78
2022/12/13 11:34:16;;;;;;;37.95;21.70;;;0.30;99.90;;;;;;5117089;28;20398;-76
2022/12/13 11:37:00;;;;;;;37.33;24.10;;;-0.50;99.90;;;;;;5116105;28;20062;-77
2022/12/13 11:39:31;;;;;;;37.40;23.35;;;-0.40;99.90;;;;;;5116867;28;20083;-80
2022/12/13 11:42:20;;;;;;;39.33;24.75;;;-0.40;99.90;;;;;;5117038;28;20050;-79
2022/12/13 11:45:03;;;;;;;43.28;23.73;;;-0.40;99.90;;;;;;5132592;27;20059;-75
2022/12/13 11:48:09;;;;;;;39.00;24.92;;;-0.40;99.90;;;;;;5115811;28;20054;-78
2022/12/13 11:50:43;;;;;;;37.80;23.15;;;-0.40;99.90;;;;;;5116721;28;20040;-80
2022/12/13 11:53:32;;;;;;;39.00;23.73;;;-0.40;99.90;;;;;;5117130;28;20394;-77
2022/12/13 11:56:04;;;;;;;38.15;24.05;;;-0.30;99.90;;;;;;5116834;27;20052;-78
2022/12/13 11:58:54;;;;;;;38.92;23.55;;;-0.30;99.90;;;;;;5116452;28;20047;-80
2022/12/13 12:01:37;;;;;;;36.60;24.33;;;-0.30;99.90;;;;;;5116793;28;20050;-79
2022/12/13 12:04:16;;;;;;;37.03;23.92;;;-0.30;99.90;;;;;;5116694;28;20040;-78
2022/12/13 12:07:06;;;;;;;39.40;25.15;;;-0.30;99.90;;;;;;5116610;28;20086;-80
2022/12/13 12:09:35;;;;;;;34.45;22.58;;;-0.30;99.90;;;;;;5116302;27;20089;-79
2022/12/13 12:12:40;;;;;;;37.05;23.48;;;-0.30;99.90;;;;;;5116711;28;20048;-80
2022/12/13 12:15:29;;;;;;;49.15;31.10;;;-0.20;99.90;;;;;;5114239;28;20051;-80
2022/12/13 12:17:55;;;;;;;45.17;26.92;;;-0.20;99.90;;;;;;5116446;28;20055;-74
2022/12/13 12:20:45;;;;;;;38.60;24.87;;;-0.20;99.90;;;;;;5116386;28;20043;-78
2022/12/13 12:23:42;;;;;;;37.50;23.48;;;-0.20;99.90;;;;;;5116195;28;20079;-79
2022/12/13 12:26:13;;;;;;;53.33;32.97;;;-0.20;99.90;;;;;;5116283;28;20040;-79
2022/12/13 12:28:48;;;;;;;39.20;25.30;;;-0.20;99.90;;;;;;5101835;28;20044;-79
2022/12/13 12:31:30;;;;;;;38.28;24.63;;;-0.20;99.90;;;;;;5096069;28;20048;-78
2022/12/13 12:34:15;;;;;;;40.15;24.90;;;-0.10;99.90;;;;;;5095962;28;20048;-79
2022/12/13 12:37:18;;;;;;;37.55;24.50;;;-0.10;99.90;;;;;;5095500;28;20052;-80
2022/12/13 12:40:00;;;;;;;39.28;25.35;;;-0.10;99.90;;;;;;5094426;28;20110;-73
2022/12/13 12:42:36;;;;;;;38.80;26.70;;;0.00;99.90;;;;;;5095399;28;20122;-82
2022/12/13 12:45:30;;;;;;;37.80;24.30;;;-0.10;99.90;;;;;;5095041;28;20139;-82
2022/12/13 12:48:23;;;;;;;40.00;26.23;;;-0.10;99.90;;;;;;5095059;28;20135;-82
2022/12/13 12:51:16;;;;;;;36.33;23.48;;;-0.10;99.90;;;;;;5094063;28;20052;-83